Amity, Oregon
Current Conditions -  °F | °C
As of 10:53 PM on Tuesday 21 Oct 2014 (Local Time) from KMMV Reporting Station
Overcast Overcast  
Wind Chill: 58°   Ceiling: 7000
Heat Index: 58°   Visibility: 10mi
Dew Point: 50°   Wind: 14mph
Humidity: 75%   Direction: 170°S
Pressure: 29.86"   Gusts: 25mph
Location:  45.12°N, 123.21°W
Report Text: KMMV 220553Z AUTO 17012G22KT 10SM OVC070 14/10 A2986 RMK AO2 RAB36E50 SLP109 P0000 60000 T01440100 10156 20139 56014 $
Loading
Personal Weather Stations






























Interactive Weather Map
Tropical Storm Tracking
New forecast layout! Learn more

10-Day Weather Forecast

Advertisements
Track Severe Weather on mobile